Time;durP1;ratioP1;P1;durP2;ratioP2;P2;SDS_P1;SDS_P2;PMS_P1;PMS_P2;Temp;Humidity;BMP_temperature;BMP_pressure;BME280_temperature;BME280_humidity;BME280_pressure;Samples;Min_cycle;Max_cycle;Signal;HPM_P1;HPM_P2
2023/10/24 00:00:27;;;;;;;0.50;0.40;;;12.00;99.90;;;;;;5046475;28;20461;-84
2023/10/24 00:02:54;;;;;;;0.60;0.60;;;12.00;99.90;;;;;;5042130;28;20482;-82
2023/10/24 00:05:21;;;;;;;0.50;0.30;;;12.10;99.90;;;;;;5044144;28;20462;-83
2023/10/24 00:07:49;;;;;;;0.50;0.50;;;12.10;99.90;;;;;;5057536;28;20933;-83
2023/10/24 00:10:17;;;;;;;0.97;0.87;;;12.10;99.90;;;;;;5042697;28;20465;-83
2023/10/24 00:12:44;;;;;;;0.60;0.60;;;12.10;99.90;;;;;;5057347;28;20442;-82
2023/10/24 00:15:13;;;;;;;0.97;0.87;;;12.20;99.90;;;;;;5057610;28;20531;-82
2023/10/24 00:17:39;;;;;;;0.60;0.60;;;12.20;99.90;;;;;;5045602;28;20477;-83
2023/10/24 00:20:07;;;;;;;0.80;0.63;;;12.20;99.90;;;;;;5051719;28;20465;-82
2023/10/24 00:22:34;;;;;;;1.00;0.50;;;12.20;99.90;;;;;;5052784;28;20552;-82
2023/10/24 00:25:01;;;;;;;0.50;0.40;;;12.20;99.90;;;;;;5050419;28;20505;-82
2023/10/24 00:27:28;;;;;;;0.93;0.87;;;12.20;99.90;;;;;;5040777;28;20521;-83
2023/10/24 00:29:55;;;;;;;0.60;0.50;;;12.20;99.90;;;;;;5050053;28;20829;-83
2023/10/24 00:32:23;;;;;;;1.10;1.10;;;12.20;99.90;;;;;;5049069;28;20434;-82
2023/10/24 00:34:50;;;;;;;0.50;0.40;;;12.30;99.90;;;;;;5048336;28;20473;-82
2023/10/24 00:37:17;;;;;;;1.80;1.70;;;12.30;99.90;;;;;;5052847;28;20437;-82
2023/10/24 00:39:44;;;;;;;1.00;0.83;;;12.40;99.90;;;;;;5052399;28;21084;-82
2023/10/24 00:42:11;;;;;;;1.23;1.13;;;12.30;99.90;;;;;;5036544;28;20524;-81
2023/10/24 00:44:38;;;;;;;0.53;0.50;;;12.40;99.90;;;;;;5060997;28;20437;-83
2023/10/24 00:47:05;;;;;;;1.23;0.70;;;12.40;99.90;;;;;;5052680;28;20520;-82
2023/10/24 00:49:33;;;;;;;0.50;0.40;;;12.50;99.90;;;;;;5060221;28;20672;-82
2023/10/24 00:52:00;;;;;;;1.10;1.00;;;12.50;99.90;;;;;;5061033;28;20469;-83
2023/10/24 00:54:28;;;;;;;1.87;1.77;;;12.50;99.90;;;;;;5047424;28;20492;-81
2023/10/24 00:56:55;;;;;;;2.47;1.10;;;12.50;99.90;;;;;;5058098;28;20446;-81
2023/10/24 00:59:24;;;;;;;0.93;0.83;;;12.50;99.90;;;;;;5060118;28;20444;-81
2023/10/24 01:01:52;;;;;;;0.63;0.63;;;12.60;99.90;;;;;;5059409;28;20473;-81
2023/10/24 01:04:20;;;;;;;0.80;0.80;;;12.60;99.90;;;;;;5049782;28;20464;-82
2023/10/24 01:06:48;;;;;;;0.50;0.40;;;12.60;99.90;;;;;;5039885;28;20956;-81
2023/10/24 01:09:15;;;;;;;0.50;0.40;;;12.70;99.90;;;;;;5031580;28;20437;-84
2023/10/24 01:11:42;;;;;;;2.83;0.50;;;12.70;99.90;;;;;;5039788;28;20438;-82
2023/10/24 01:14:09;;;;;;;0.50;0.40;;;12.60;99.90;;;;;;5042029;28;20438;-83
2023/10/24 01:16:42;;;;;;;0.90;0.50;;;12.60;99.90;;;;;;5058732;28;20433;-82
2023/10/24 01:19:09;;;;;;;0.50;0.40;;;12.60;99.90;;;;;;5050305;28;20441;-81
2023/10/24 01:21:36;;;;;;;0.50;0.40;;;12.60;99.90;;;;;;5052611;28;20821;-82
2023/10/24 01:24:05;;;;;;;1.63;1.63;;;12.60;99.90;;;;;;5048240;28;20561;-83
2023/10/24 01:26:32;;;;;;;0.50;0.40;;;12.70;99.90;;;;;;5053226;28;20525;-82
2023/10/24 01:28:59;;;;;;;0.57;0.53;;;12.70;99.90;;;;;;5050418;28;20449;-83
2023/10/24 01:31:26;;;;;;;0.60;0.60;;;12.70;99.90;;;;;;5051823;28;20468;-82
2023/10/24 01:33:53;;;;;;;0.83;0.70;;;12.70;99.90;;;;;;5052500;28;20438;-83
2023/10/24 01:36:19;;;;;;;0.50;0.40;;;12.70;99.90;;;;;;5040595;28;20477;-81
2023/10/24 01:38:46;;;;;;;0.80;0.60;;;12.80;99.90;;;;;;5040200;28;20530;-81
2023/10/24 01:41:15;;;;;;;0.70;0.70;;;12.80;99.90;;;;;;5051718;28;20544;-81
2023/10/24 01:43:42;;;;;;;0.50;0.40;;;12.80;99.90;;;;;;5059985;28;20480;-80
2023/10/24 01:46:08;;;;;;;1.23;0.70;;;12.80;99.90;;;;;;5049993;28;20526;-81
2023/10/24 01:48:35;;;;;;;0.50;0.40;;;12.80;99.90;;;;;;5046106;28;20466;-81
2023/10/24 01:51:03;;;;;;;0.50;0.40;;;12.90;99.90;;;;;;5047704;28;20841;-82
2023/10/24 01:53:30;;;;;;;0.80;0.80;;;12.90;99.90;;;;;;5044166;28;20470;-81
2023/10/24 01:55:57;;;;;;;4.03;1.20;;;12.90;99.90;;;;;;5054305;28;20492;-82
2023/10/24 01:58:25;;;;;;;1.03;0.93;;;12.90;99.90;;;;;;5044659;28;20868;-81
2023/10/24 02:00:52;;;;;;;0.50;0.40;;;12.90;99.90;;;;;;5045284;28;20964;-80
2023/10/24 02:03:19;;;;;;;0.50;0.40;;;12.90;99.90;;;;;;5036951;28;20475;-82
2023/10/24 02:05:46;;;;;;;0.50;0.40;;;12.90;99.90;;;;;;5043718;28;20452;-82
2023/10/24 02:08:13;;;;;;;0.50;0.40;;;12.90;99.90;;;;;;5045500;28;20445;-82
2023/10/24 02:10:39;;;;;;;0.50;0.50;;;12.90;99.90;;;;;;5036320;28;20455;-83
2023/10/24 02:13:06;;;;;;;0.50;0.37;;;12.90;99.90;;;;;;5044815;28;20473;-82
2023/10/24 02:15:37;;;;;;;0.50;0.40;;;12.90;99.90;;;;;;5049992;28;20438;-83
2023/10/24 02:18:04;;;;;;;0.70;0.70;;;12.90;99.90;;;;;;5054270;28;20434;-82
2023/10/24 02:20:31;;;;;;;0.50;0.40;;;12.90;99.90;;;;;;5049557;28;21003;-81
2023/10/24 02:22:57;;;;;;;0.60;0.50;;;12.90;99.90;;;;;;5055932;28;20488;-81
2023/10/24 02:25:24;;;;;;;0.60;0.40;;;12.90;99.90;;;;;;5056192;28;20472;-82
2023/10/24 02:27:52;;;;;;;0.50;0.30;;;12.90;99.90;;;;;;5040122;28;20521;-82
2023/10/24 02:30:21;;;;;;;2.73;1.80;;;12.90;99.90;;;;;;5055506;28;20814;-82
2023/10/24 02:32:50;;;;;;;0.50;0.40;;;12.90;99.90;;;;;;5047315;28;20442;-81
2023/10/24 02:35:17;;;;;;;0.87;0.87;;;12.90;99.90;;;;;;5039087;28;20442;-82
2023/10/24 02:37:43;;;;;;;1.87;1.77;;;12.90;99.90;;;;;;5055675;28;20516;-83
2023/10/24 02:40:11;;;;;;;0.50;0.40;;;12.90;99.90;;;;;;5055646;28;20806;-79
2023/10/24 02:42:38;;;;;;;0.77;0.77;;;12.80;99.90;;;;;;5054583;28;20479;-79
2023/10/24 02:45:06;;;;;;;0.50;0.40;;;12.90;99.90;;;;;;5055269;28;20438;-80
2023/10/24 02:47:33;;;;;;;1.23;1.13;;;12.90;99.90;;;;;;5049870;28;20434;-82
2023/10/24 02:50:01;;;;;;;1.00;1.00;;;12.80;99.90;;;;;;5043732;28;20501;-81
2023/10/24 02:52:29;;;;;;;0.50;0.50;;;12.90;99.90;;;;;;5051068;28;20453;-81
2023/10/24 02:54:56;;;;;;;0.50;0.40;;;12.90;99.90;;;;;;5043806;28;20455;-82
2023/10/24 02:57:23;;;;;;;2.10;0.67;;;12.90;99.90;;;;;;5036017;28;20482;-81
2023/10/24 02:59:50;;;;;;;1.03;1.03;;;12.90;99.90;;;;;;5043642;28;20458;-81
2023/10/24 03:02:17;;;;;;;0.90;0.90;;;12.80;99.90;;;;;;5037746;28;20446;-82
2023/10/24 03:04:44;;;;;;;0.50;0.40;;;12.80;99.90;;;;;;5046765;28;20992;-81
2023/10/24 03:07:12;;;;;;;0.50;0.43;;;12.80;99.90;;;;;;5054558;28;20440;-82
2023/10/24 03:09:39;;;;;;;1.17;0.63;;;12.90;99.90;;;;;;5041060;28;20534;-81
2023/10/24 03:12:09;;;;;;;0.50;0.40;;;12.90;99.90;;;;;;5042669;28;20433;-80
2023/10/24 03:14:36;;;;;;;0.50;0.40;;;12.90;99.90;;;;;;5035864;28;20442;-85
2023/10/24 03:17:03;;;;;;;0.60;0.40;;;12.90;99.90;;;;;;5044400;28;20446;-82
2023/10/24 03:19:32;;;;;;;1.23;1.13;;;12.80;99.90;;;;;;5025356;28;20480;-84
2023/10/24 03:21:59;;;;;;;0.50;0.33;;;12.80;99.90;;;;;;5049322;28;20964;-82
2023/10/24 03:24:29;;;;;;;0.50;0.50;;;12.80;99.90;;;;;;5051361;28;20480;-81
2023/10/24 03:26:56;;;;;;;0.93;0.77;;;12.80;99.90;;;;;;5032856;28;20446;-81
2023/10/24 03:29:23;;;;;;;0.50;0.40;;;12.90;99.90;;;;;;5043954;28;20932;-81
2023/10/24 03:31:50;;;;;;;1.53;0.87;;;12.90;99.90;;;;;;5044481;28;20430;-80
2023/10/24 03:34:18;;;;;;;0.80;0.70;;;12.80;99.90;;;;;;5034485;28;20484;-80
2023/10/24 03:36:45;;;;;;;0.67;0.67;;;12.80;99.90;;;;;;5040609;28;20509;-81
2023/10/24 03:39:12;;;;;;;0.50;0.40;;;12.80;99.90;;;;;;5045099;28;20440;-78
2023/10/24 03:41:41;;;;;;;0.50;0.40;;;12.80;99.90;;;;;;5043842;28;20779;-80
2023/10/24 03:44:07;;;;;;;0.50;0.40;;;12.80;99.90;;;;;;5034445;28;20478;-79
2023/10/24 03:46:34;;;;;;;0.50;0.40;;;12.80;99.90;;;;;;5034956;28;20506;-80
2023/10/24 03:49:02;;;;;;;0.50;0.40;;;12.80;99.90;;;;;;5035816;28;20449;-83
2023/10/24 03:51:28;;;;;;;0.50;0.40;;;12.80;99.90;;;;;;5028556;28;20466;-82
2023/10/24 03:53:55;;;;;;;1.00;0.83;;;12.80;99.90;;;;;;5035196;28;20922;-79
2023/10/24 03:56:22;;;;;;;0.50;0.40;;;12.80;99.90;;;;;;5033855;28;20464;-82
2023/10/24 03:58:50;;;;;;;0.50;0.40;;;12.80;99.90;;;;;;5037867;28;20451;-81
2023/10/24 04:01:17;;;;;;;0.50;0.40;;;12.80;99.90;;;;;;5037001;28;20552;-82
2023/10/24 04:03:44;;;;;;;0.50;0.30;;;12.80;99.90;;;;;;5038744;28;20998;-82
2023/10/24 04:06:11;;;;;;;0.50;0.40;;;12.70;99.90;;;;;;5037422;28;20435;-82
2023/10/24 04:08:38;;;;;;;0.50;0.40;;;12.70;99.90;;;;;;5038423;28;20441;-82
2023/10/24 04:11:05;;;;;;;0.50;0.40;;;12.70;99.90;;;;;;5036150;28;20473;-81
2023/10/24 04:13:32;;;;;;;0.60;0.50;;;12.60;99.90;;;;;;5036754;28;20826;-82
2023/10/24 04:16:00;;;;;;;0.60;0.60;;;12.60;99.90;;;;;;5038327;28;20441;-82
2023/10/24 04:18:27;;;;;;;0.50;0.40;;;12.60;99.90;;;;;;5038139;28;20449;-81
2023/10/24 04:20:54;;;;;;;0.70;0.50;;;12.60;99.90;;;;;;5038968;28;20458;-81
2023/10/24 04:23:21;;;;;;;0.80;0.80;;;12.50;99.90;;;;;;5038118;28;20564;-83
2023/10/24 04:25:48;;;;;;;8.03;7.60;;;12.50;99.90;;;;;;5043857;28;20468;-82
2023/10/24 04:28:15;;;;;;;0.50;0.40;;;12.50;99.90;;;;;;5057859;28;20433;-82
2023/10/24 04:30:42;;;;;;;0.50;0.40;;;12.50;99.90;;;;;;5057806;28;20476;-81
2023/10/24 04:33:11;;;;;;;0.60;0.40;;;12.50;99.90;;;;;;5062253;28;20448;-83
2023/10/24 04:35:46;;;;;;;0.70;0.70;;;12.50;99.90;;;;;;5059666;28;20438;-82
2023/10/24 04:38:14;;;;;;;0.50;0.50;;;12.50;99.90;;;;;;5059741;28;20892;-82
2023/10/24 04:40:41;;;;;;;0.70;0.60;;;12.50;99.90;;;;;;5046011;28;20464;-82
2023/10/24 04:43:08;;;;;;;0.50;0.40;;;12.50;99.90;;;;;;5038867;28;20445;-82
2023/10/24 04:45:35;;;;;;;0.50;0.40;;;12.50;99.90;;;;;;5031163;28;20430;-81
2023/10/24 04:48:02;;;;;;;0.80;0.70;;;12.50;99.90;;;;;;5047329;28;20435;-82
2023/10/24 04:50:31;;;;;;;0.50;0.50;;;12.50;99.90;;;;;;5037942;28;20541;-82
2023/10/24 04:52:58;;;;;;;0.50;0.47;;;12.40;99.90;;;;;;5052979;28;20888;-83
2023/10/24 04:55:25;;;;;;;0.60;0.40;;;12.50;99.90;;;;;;5058926;28;20528;-83
2023/10/24 04:57:52;;;;;;;0.50;0.40;;;12.50;99.90;;;;;;5057632;28;20443;-82
2023/10/24 05:00:19;;;;;;;0.50;0.40;;;12.50;99.90;;;;;;5047534;28;20987;-82
2023/10/24 05:02:46;;;;;;;0.60;0.43;;;12.50;99.90;;;;;;5038143;28;20438;-82
2023/10/24 05:05:12;;;;;;;0.50;0.40;;;12.50;99.90;;;;;;5037572;28;20474;-82
2023/10/24 05:07:40;;;;;;;0.50;0.40;;;12.50;99.90;;;;;;5037464;28;20434;-84
2023/10/24 05:10:08;;;;;;;0.60;0.50;;;12.50;99.90;;;;;;5045871;28;20457;-81
2023/10/24 05:12:35;;;;;;;0.90;0.60;;;12.40;99.90;;;;;;5057344;28;20468;-83
2023/10/24 05:15:02;;;;;;;0.50;0.40;;;12.50;99.90;;;;;;5042454;28;20517;-82
2023/10/24 05:17:30;;;;;;;0.50;0.40;;;12.50;99.90;;;;;;5036939;28;20493;-82
2023/10/24 05:19:59;;;;;;;0.50;0.40;;;12.50;99.90;;;;;;5038029;28;20476;-82
2023/10/24 05:22:26;;;;;;;1.00;0.90;;;12.50;99.90;;;;;;5036921;28;20762;-82
2023/10/24 05:24:54;;;;;;;0.50;0.40;;;12.50;99.90;;;;;;5051662;28;20556;-82
2023/10/24 05:27:22;;;;;;;0.50;0.40;;;12.50;99.90;;;;;;5047545;28;20553;-82
2023/10/24 05:29:49;;;;;;;0.50;0.40;;;12.50;99.90;;;;;;5055701;28;20989;-83
2023/10/24 05:32:16;;;;;;;0.60;0.60;;;12.50;99.90;;;;;;5057021;28;20540;-81
2023/10/24 05:34:43;;;;;;;1.13;0.90;;;12.50;99.90;;;;;;5045676;28;20438;-82
2023/10/24 05:37:09;;;;;;;0.50;0.40;;;12.50;99.90;;;;;;5046241;28;20427;-82
2023/10/24 05:39:36;;;;;;;0.60;0.60;;;12.40;99.90;;;;;;5037689;28;20450;-83
2023/10/24 05:42:05;;;;;;;0.60;0.60;;;12.40;99.90;;;;;;5037202;28;20470;-83
2023/10/24 05:44:32;;;;;;;1.33;1.03;;;12.40;99.90;;;;;;5057047;28;20484;-84
2023/10/24 05:46:58;;;;;;;1.43;1.43;;;12.40;99.90;;;;;;5059322;28;20887;-83
2023/10/24 05:49:25;;;;;;;0.73;0.73;;;12.40;99.90;;;;;;5057703;28;20529;-82
2023/10/24 05:51:52;;;;;;;0.60;0.60;;;12.40;99.90;;;;;;5058550;28;20474;-83
2023/10/24 05:54:19;;;;;;;0.50;0.40;;;12.40;99.90;;;;;;5057856;28;20430;-81
2023/10/24 05:56:46;;;;;;;0.50;0.40;;;12.40;99.90;;;;;;5038901;28;20449;-82
2023/10/24 05:59:14;;;;;;;0.50;0.40;;;12.40;99.90;;;;;;5037124;28;20752;-81
2023/10/24 06:01:41;;;;;;;0.50;0.40;;;12.50;99.90;;;;;;5033714;28;20434;-82
2023/10/24 06:04:07;;;;;;;0.60;0.50;;;12.40;99.90;;;;;;5041754;28;20474;-82
2023/10/24 06:06:34;;;;;;;0.50;0.50;;;12.40;99.90;;;;;;5036911;28;20439;-82
2023/10/24 06:09:02;;;;;;;1.07;0.97;;;12.40;99.90;;;;;;5038119;28;20538;-81
2023/10/24 06:11:29;;;;;;;0.60;0.60;;;12.40;99.90;;;;;;5035826;28;20878;-82
2023/10/24 06:13:56;;;;;;;0.50;0.40;;;12.30;99.90;;;;;;5049570;28;20444;-82
2023/10/24 06:16:24;;;;;;;1.60;0.83;;;12.30;99.90;;;;;;5055053;28;20463;-80
2023/10/24 06:18:51;;;;;;;0.50;0.40;;;12.40;99.90;;;;;;5055425;28;20438;-82
2023/10/24 06:21:17;;;;;;;1.50;1.50;;;12.40;99.90;;;;;;5056000;28;20565;-82
2023/10/24 06:23:45;;;;;;;1.20;1.10;;;12.40;99.90;;;;;;5056702;28;20442;-82
2023/10/24 06:26:16;;;;;;;0.50;0.50;;;12.30;99.90;;;;;;5049067;28;20530;-82
2023/10/24 06:28:43;;;;;;;0.50;0.47;;;12.30;99.90;;;;;;5028385;28;20439;-82
2023/10/24 06:31:10;;;;;;;1.20;0.70;;;12.40;99.90;;;;;;5035998;28;20466;-82
2023/10/24 06:33:40;;;;;;;0.77;0.77;;;12.30;99.90;;;;;;5038839;28;20445;-82
2023/10/24 06:36:08;;;;;;;0.50;0.40;;;12.40;99.90;;;;;;5054895;28;20454;-82
2023/10/24 06:38:34;;;;;;;0.50;0.40;;;12.30;99.90;;;;;;5055231;28;20442;-81
2023/10/24 06:41:01;;;;;;;0.53;0.53;;;12.30;99.90;;;;;;5056281;28;20472;-82
2023/10/24 06:43:28;;;;;;;1.57;1.03;;;12.40;99.90;;;;;;5048258;28;20478;-82
2023/10/24 06:45:55;;;;;;;1.57;0.80;;;12.40;99.90;;;;;;5038096;28;20482;-81
2023/10/24 06:48:22;;;;;;;0.50;0.40;;;12.40;99.90;;;;;;5044709;28;20521;-82
2023/10/24 06:50:50;;;;;;;0.50;0.40;;;12.40;99.90;;;;;;5035926;28;20455;-82
2023/10/24 06:53:17;;;;;;;0.57;0.57;;;12.40;99.90;;;;;;5042958;28;20448;-82
2023/10/24 06:55:44;;;;;;;1.00;0.57;;;12.40;99.90;;;;;;5055087;28;20436;-81
2023/10/24 06:58:11;;;;;;;0.50;0.40;;;12.50;99.90;;;;;;5055088;28;20466;-82
2023/10/24 07:00:37;;;;;;;0.50;0.40;;;12.50;99.90;;;;;;5043976;28;20545;-81
2023/10/24 07:03:05;;;;;;;0.50;0.40;;;12.50;99.90;;;;;;5035019;28;20499;-81
2023/10/24 07:05:32;;;;;;;0.50;0.40;;;12.50;99.90;;;;;;5051787;28;20537;-80
2023/10/24 07:08:00;;;;;;;0.50;0.40;;;12.50;99.90;;;;;;5035509;28;20453;-80
2023/10/24 07:10:28;;;;;;;0.60;0.60;;;12.50;99.90;;;;;;5042241;28;20459;-81
2023/10/24 07:12:55;;;;;;;0.63;0.60;;;12.50;99.90;;;;;;5040806;28;20859;-81
2023/10/24 07:15:22;;;;;;;0.50;0.40;;;12.50;99.90;;;;;;5054522;28;20434;-79
2023/10/24 07:17:49;;;;;;;0.50;0.40;;;12.50;99.90;;;;;;5054241;28;20437;-81
2023/10/24 07:20:16;;;;;;;0.80;0.80;;;12.50;99.90;;;;;;5047233;28;20458;-81
2023/10/24 07:22:42;;;;;;;0.50;0.30;;;12.50;99.90;;;;;;5034429;28;20542;-82
2023/10/24 07:25:11;;;;;;;0.50;0.40;;;12.60;99.90;;;;;;5034774;28;20485;-83
2023/10/24 07:27:38;;;;;;;0.50;0.40;;;12.60;99.90;;;;;;5034044;28;20446;-82
2023/10/24 07:30:07;;;;;;;0.60;0.50;;;12.60;99.90;;;;;;5034523;28;20467;-81
2023/10/24 07:32:34;;;;;;;0.50;0.40;;;12.60;99.90;;;;;;5034174;28;20541;-81
2023/10/24 07:35:02;;;;;;;0.50;0.40;;;12.60;99.90;;;;;;5034562;28;20438;-81
2023/10/24 07:37:29;;;;;;;0.50;0.40;;;12.60;99.90;;;;;;5034966;28;20478;-81
2023/10/24 07:39:56;;;;;;;0.50;0.33;;;12.60;99.90;;;;;;5034238;28;20455;-81
2023/10/24 07:42:24;;;;;;;0.50;0.40;;;12.60;99.90;;;;;;5042377;28;20438;-82
2023/10/24 07:44:53;;;;;;;1.03;0.93;;;12.60;99.90;;;;;;5026219;28;20481;-82
2023/10/24 07:47:20;;;;;;;0.50;0.40;;;12.60;99.90;;;;;;5034675;28;20477;-79
2023/10/24 07:49:47;;;;;;;0.50;0.50;;;12.50;99.90;;;;;;5034551;28;20484;-82
2023/10/24 07:52:13;;;;;;;0.70;0.40;;;12.50;99.90;;;;;;5034012;28;20439;-80
2023/10/24 07:54:40;;;;;;;0.50;0.40;;;12.50;99.90;;;;;;5034023;28;20437;-81
2023/10/24 07:57:07;;;;;;;0.50;0.40;;;12.50;99.90;;;;;;5033966;28;20434;-82
2023/10/24 07:59:35;;;;;;;0.50;0.40;;;12.60;99.90;;;;;;5043225;28;20464;-81
2023/10/24 08:02:02;;;;;;;0.60;0.50;;;12.60;99.90;;;;;;5053683;28;20445;-81
2023/10/24 08:04:29;;;;;;;0.50;0.40;;;12.60;99.90;;;;;;5052884;28;20499;-82
2023/10/24 08:06:56;;;;;;;0.50;0.40;;;12.60;99.90;;;;;;5033868;28;20442;-81
2023/10/24 08:09:23;;;;;;;0.50;0.40;;;12.60;99.90;;;;;;5033293;28;20435;-82
2023/10/24 08:11:49;;;;;;;0.50;0.40;;;12.60;99.90;;;;;;5032975;28;20437;-80
2023/10/24 08:14:16;;;;;;;0.50;0.37;;;12.70;99.90;;;;;;5033478;28;20533;-80
2023/10/24 08:16:44;;;;;;;0.60;0.50;;;12.70;99.90;;;;;;5033030;28;20442;-80
2023/10/24 08:19:11;;;;;;;0.50;0.40;;;12.60;99.90;;;;;;5033406;28;20438;-81
2023/10/24 08:21:38;;;;;;;0.50;0.50;;;12.60;99.90;;;;;;5033182;28;20948;-81
2023/10/24 08:24:06;;;;;;;0.50;0.40;;;12.70;99.90;;;;;;5033552;28;20437;-81
2023/10/24 08:26:32;;;;;;;0.50;0.40;;;12.70;99.90;;;;;;5041433;28;20435;-80
2023/10/24 08:28:59;;;;;;;0.50;0.40;;;12.80;99.90;;;;;;5033304;28;20437;-80
2023/10/24 08:31:27;;;;;;;0.50;0.40;;;12.80;99.90;;;;;;5033199;28;20883;-81
2023/10/24 08:33:55;;;;;;;0.50;0.40;;;12.80;99.90;;;;;;5044791;28;20930;-80
2023/10/24 08:36:22;;;;;;;0.70;0.70;;;12.80;99.90;;;;;;5037583;28;20439;-81
2023/10/24 08:38:49;;;;;;;0.50;0.40;;;12.80;99.90;;;;;;5052139;28;20802;-80
2023/10/24 08:41:16;;;;;;;0.50;0.40;;;12.90;99.90;;;;;;5054939;28;20464;-78
2023/10/24 08:43:44;;;;;;;0.50;0.40;;;12.90;99.90;;;;;;5055915;28;20955;-81
2023/10/24 08:46:12;;;;;;;0.50;0.40;;;12.90;99.90;;;;;;5056691;28;20480;-80
2023/10/24 08:48:38;;;;;;;0.50;0.40;;;12.90;99.90;;;;;;5054922;28;20441;-81
2023/10/24 08:51:07;;;;;;;0.50;0.40;;;13.00;99.90;;;;;;5036417;28;20525;-80
2023/10/24 08:53:34;;;;;;;0.50;0.30;;;13.00;99.90;;;;;;5036687;28;20878;-81
2023/10/24 08:56:03;;;;;;;0.50;0.40;;;13.00;99.90;;;;;;5036192;28;20521;-80
2023/10/24 08:58:32;;;;;;;0.50;0.40;;;13.00;99.90;;;;;;5036438;28;20438;-81
2023/10/24 09:01:00;;;;;;;0.50;0.50;;;13.00;99.90;;;;;;5028282;28;20458;-80
2023/10/24 09:03:28;;;;;;;0.60;0.40;;;13.00;99.90;;;;;;5044100;28;20913;-80
2023/10/24 09:05:56;;;;;;;0.60;0.60;;;13.00;99.90;;;;;;5055866;28;20992;-80
2023/10/24 09:08:23;;;;;;;0.60;0.50;;;13.10;99.90;;;;;;5056263;28;20513;-81
2023/10/24 09:10:50;;;;;;;0.50;0.40;;;13.10;99.90;;;;;;5055625;28;20548;-81
2023/10/24 09:13:18;;;;;;;0.57;0.53;;;13.20;99.90;;;;;;5055832;28;20448;-82
2023/10/24 09:16:04;;;;;;;0.50;0.40;;;13.20;99.90;;;;;;5055916;28;20434;-80
2023/10/24 09:18:31;;;;;;;0.50;0.30;;;13.20;99.90;;;;;;5039555;28;20445;-80
2023/10/24 09:20:59;;;;;;;0.50;0.40;;;13.30;99.90;;;;;;5036238;28;20993;-80
2023/10/24 09:23:27;;;;;;;0.83;0.83;;;13.40;99.90;;;;;;5035789;28;20441;-79
2023/10/24 09:25:54;;;;;;;0.53;0.40;;;13.40;99.90;;;;;;5035563;28;20493;-81
2023/10/24 09:28:21;;;;;;;0.50;0.40;;;13.60;99.90;;;;;;5050431;28;20441;-80
2023/10/24 09:30:48;;;;;;;0.50;0.40;;;13.70;99.90;;;;;;5036237;28;20462;-80
2023/10/24 09:33:15;;;;;;;0.50;0.40;;;13.90;99.90;;;;;;5049453;28;20442;-80
2023/10/24 09:35:42;;;;;;;0.50;0.40;;;14.10;99.90;;;;;;5055450;28;20479;-81
2023/10/24 09:38:09;;;;;;;0.50;0.40;;;14.40;99.90;;;;;;5055442;28;20876;-80
2023/10/24 09:40:39;;;;;;;0.50;0.40;;;14.50;99.90;;;;;;5054562;28;21020;-80
2023/10/24 09:43:12;;;;;;;0.50;0.40;;;14.50;99.90;;;;;;5055153;28;20937;-80
2023/10/24 09:45:41;;;;;;;0.50;0.40;;;14.60;99.90;;;;;;5054548;28;20558;-80
2023/10/24 09:48:09;;;;;;;0.50;0.40;;;14.60;99.90;;;;;;5046781;28;20790;-80
2023/10/24 09:50:38;;;;;;;0.50;0.40;;;14.60;99.90;;;;;;5038165;28;20461;-80
2023/10/24 09:53:06;;;;;;;1.03;0.80;;;14.40;99.90;;;;;;5047252;28;20469;-81
2023/10/24 09:55:35;;;;;;;0.50;0.30;;;14.40;99.90;;;;;;5054686;28;20433;-80
2023/10/24 09:58:05;;;;;;;3.70;0.70;;;14.50;99.90;;;;;;5054467;28;20522;-79
2023/10/24 10:00:32;;;;;;;0.50;0.40;;;14.70;99.90;;;;;;5034938;28;20454;-80
2023/10/24 10:03:03;;;;;;;0.50;0.37;;;14.90;99.90;;;;;;5045862;28;20937;-80
2023/10/24 10:05:31;;;;;;;0.50;0.40;;;15.00;99.90;;;;;;5054596;28;20961;-80
2023/10/24 10:08:02;;;;;;;0.53;0.47;;;15.00;99.90;;;;;;5060572;22;20836;-81
2023/10/24 10:10:30;;;;;;;0.50;0.40;;;15.10;99.90;;;;;;5059099;28;20949;-80
2023/10/24 10:13:03;;;;;;;0.50;0.40;;;15.20;99.90;;;;;;5059208;28;21076;-80
2023/10/24 10:15:50;;;;;;;0.50;0.40;;;15.30;99.90;;;;;;5059429;28;20436;-79
2023/10/24 10:18:32;;;;;;;0.60;0.47;;;15.30;99.90;;;;;;5052549;28;20540;-79
2023/10/24 10:21:11;;;;;;;3.70;1.00;;;15.20;99.90;;;;;;5061049;28;20522;-80
2023/10/24 10:24:02;;;;;;;8.80;1.33;;;15.00;99.90;;;;;;5061879;28;20505;-79
2023/10/24 10:26:47;;;;;;;0.50;0.50;;;15.20;99.90;;;;;;5056930;28;20483;-79
2023/10/24 10:29:25;;;;;;;0.70;0.50;;;15.60;99.90;;;;;;5062227;28;20613;-81
2023/10/24 10:32:14;;;;;;;0.50;0.40;;;16.10;99.90;;;;;;5062280;28;20471;-81
2023/10/24 10:34:42;;;;;;;0.70;0.70;;;16.50;99.90;;;;;;5062431;28;20430;-79
2023/10/24 10:37:10;;;;;;;2.50;1.03;;;16.70;99.90;;;;;;5062364;28;20462;-81
2023/10/24 10:39:37;;;;;;;0.60;0.50;;;16.70;99.90;;;;;;5062451;28;20437;-80
2023/10/24 10:42:04;;;;;;;0.60;0.40;;;16.80;99.90;;;;;;5062473;28;20462;-80
2023/10/24 10:44:38;;;;;;;0.77;0.53;;;16.60;99.90;;;;;;5062707;28;20460;-81
2023/10/24 10:47:08;;;;;;;0.50;0.30;;;16.50;99.90;;;;;;5054056;28;20541;-80
2023/10/24 10:49:53;;;;;;;1.20;0.60;;;16.60;99.90;;;;;;5018238;28;20945;-81
2023/10/24 10:52:37;;;;;;;0.50;0.30;;;16.90;99.90;;;;;;5061648;28;20449;-81
2023/10/24 10:55:19;;;;;;;0.50;0.40;;;16.90;99.90;;;;;;5061426;28;20445;-81
2023/10/24 10:58:02;;;;;;;1.20;0.97;;;16.90;99.90;;;;;;5062089;28;20461;-80
2023/10/24 11:00:38;;;;;;;0.70;0.53;;;16.80;99.90;;;;;;5061381;28;20464;-80
2023/10/24 11:03:18;;;;;;;0.50;0.50;;;16.60;99.90;;;;;;5061927;28;20528;-81
2023/10/24 11:05:49;;;;;;;0.50;0.30;;;16.50;99.90;;;;;;5062183;28;20560;-80
2023/10/24 11:08:19;;;;;;;0.60;0.50;;;16.30;99.90;;;;;;5061154;28;20465;-81
2023/10/24 11:10:55;;;;;;;0.50;0.30;;;16.10;99.90;;;;;;5061469;28;20442;-80
2023/10/24 11:13:33;;;;;;;0.50;0.30;;;16.00;99.90;;;;;;5061715;28;20440;-81
2023/10/24 11:16:02;;;;;;;0.50;0.30;;;16.00;99.90;;;;;;5062603;28;20430;-80
2023/10/24 11:18:31;;;;;;;0.50;0.30;;;16.10;99.90;;;;;;5062484;28;20437;-81
2023/10/24 11:20:58;;;;;;;0.50;0.40;;;16.10;99.90;;;;;;5061149;28;20446;-79
2023/10/24 11:23:25;;;;;;;0.50;0.50;;;15.80;99.90;;;;;;5061380;28;20441;-80
2023/10/24 11:25:53;;;;;;;0.50;0.40;;;15.70;99.90;;;;;;5060871;28;21094;-81
2023/10/24 11:28:20;;;;;;;0.50;0.40;;;15.50;99.90;;;;;;5060766;28;20461;-81
2023/10/24 11:30:48;;;;;;;0.50;0.40;;;15.60;99.90;;;;;;5063693;28;20468;-80
2023/10/24 11:33:15;;;;;;;0.50;0.30;;;15.50;99.90;;;;;;5063840;28;20446;-80
2023/10/24 11:35:43;;;;;;;0.50;0.40;;;15.40;99.90;;;;;;5061843;28;20436;-80
2023/10/24 11:38:10;;;;;;;0.50;0.40;;;15.20;99.90;;;;;;5061809;28;20837;-80
2023/10/24 11:40:36;;;;;;;0.50;0.40;;;15.10;99.90;;;;;;5061876;28;20502;-81
2023/10/24 11:43:07;;;;;;;0.70;0.50;;;15.00;99.90;;;;;;5061526;28;20466;-81
2023/10/24 11:45:36;;;;;;;0.60;0.50;;;14.80;99.90;;;;;;5062227;28;20245;-80
2023/10/24 11:48:03;;;;;;;0.60;0.50;;;14.80;99.90;;;;;;5061330;28;20470;-80
2023/10/24 11:50:39;;;;;;;0.50;0.40;;;14.70;99.90;;;;;;5060816;28;20437;-79
2023/10/24 11:53:08;;;;;;;0.80;0.70;;;14.60;99.90;;;;;;5060645;28;20532;-80
2023/10/24 11:55:35;;;;;;;1.27;0.60;;;14.50;99.90;;;;;;5059335;28;20442;-82
2023/10/24 11:58:02;;;;;;;1.03;0.90;;;14.50;99.90;;;;;;5061936;28;20832;-83
2023/10/24 12:00:31;;;;;;;0.70;0.70;;;14.50;99.90;;;;;;5059414;28;20444;-79
2023/10/24 12:03:03;;;;;;;0.50;0.40;;;14.50;99.90;;;;;;5059236;28;20951;-79
2023/10/24 12:05:30;;;;;;;0.50;0.40;;;14.50;99.90;;;;;;5060636;28;20468;-82
2023/10/24 12:07:57;;;;;;;0.60;0.40;;;14.50;99.90;;;;;;5059568;28;20466;-78
2023/10/24 12:10:25;;;;;;;0.70;0.70;;;14.50;99.90;;;;;;5053844;28;20512;-76
2023/10/24 12:12:56;;;;;;;0.50;0.37;;;14.50;99.90;;;;;;5060635;28;20464;-81
2023/10/24 12:15:23;;;;;;;0.60;0.50;;;14.40;99.90;;;;;;5064494;28;20445;-82
2023/10/24 12:17:50;;;;;;;0.50;0.40;;;14.30;99.90;;;;;;5067338;28;20467;-81
2023/10/24 12:20:18;;;;;;;0.50;0.40;;;14.20;99.90;;;;;;5066717;28;20444;-82
2023/10/24 12:22:46;;;;;;;0.50;0.40;;;14.20;99.90;;;;;;5063522;28;20443;-79
2023/10/24 12:25:13;;;;;;;0.50;0.47;;;14.10;99.90;;;;;;5064048;28;20461;-80
2023/10/24 12:27:41;;;;;;;0.60;0.40;;;14.00;99.90;;;;;;5065572;28;20560;-81
2023/10/24 12:30:09;;;;;;;0.50;0.40;;;13.80;99.90;;;;;;5064571;28;20446;-78
2023/10/24 12:32:36;;;;;;;1.23;0.80;;;13.50;99.90;;;;;;5063517;28;20453;-82
2023/10/24 12:35:03;;;;;;;0.90;0.90;;;13.40;99.90;;;;;;5065341;28;20816;-82
2023/10/24 12:37:30;;;;;;;0.50;0.50;;;13.30;99.90;;;;;;5063756;28;20483;-82
2023/10/24 12:39:56;;;;;;;0.50;0.40;;;13.20;99.90;;;;;;5063963;28;20440;-82
2023/10/24 12:42:23;;;;;;;0.50;0.50;;;13.10;99.90;;;;;;5065987;28;20528;-82
2023/10/24 12:44:51;;;;;;;0.83;0.83;;;12.90;99.90;;;;;;5067840;28;20441;-82
2023/10/24 12:47:19;;;;;;;0.60;0.40;;;12.80;99.90;;;;;;5051448;28;20485;-82
2023/10/24 12:49:46;;;;;;;1.10;1.00;;;12.70;99.90;;;;;;5057498;28;20487;-80
2023/10/24 12:52:13;;;;;;;0.80;0.60;;;12.60;99.90;;;;;;5057773;28;20438;-82